Time;durP1;ratioP1;P1;durP2;ratioP2;P2;SDS_P1;SDS_P2;PMS_P1;PMS_P2;Temp;Humidity;BMP_temperature;BMP_pressure;BME280_temperature;BME280_humidity;BME280_pressure;Samples;Min_cycle;Max_cycle;Signal;HPM_P1;HPM_P2
2023/08/31 00:01:49;;;;;;;4.95;3.22;;;;;;;;;;5044811;28;20037;-80
2023/08/31 00:04:15;;;;;;;8.18;5.00;;;;;;;;;;5049171;28;20037;-80
2023/08/31 00:06:45;;;;;;;5.40;3.75;;;;;;;;;;5048127;28;20025;-80
2023/08/31 00:09:10;;;;;;;7.93;4.10;;;;;;;;;;5047570;28;20094;-80
2023/08/31 00:11:36;;;;;;;6.05;4.18;;;;;;;;;;5048361;28;20042;-80
2023/08/31 00:14:01;;;;;;;6.05;3.75;;;;;;;;;;5045344;28;20091;-80
2023/08/31 00:16:26;;;;;;;8.90;5.38;;;;;;;;;;5047630;28;20561;-80
2023/08/31 00:18:52;;;;;;;5.72;4.20;;;;;;;;;;5049163;28;20048;-80
2023/08/31 00:21:17;;;;;;;5.13;4.07;;;;;;;;;;5041922;28;20029;-80
2023/08/31 00:23:43;;;;;;;6.25;4.35;;;;;;;;;;5053756;28;20595;-80
2023/08/31 00:26:08;;;;;;;5.07;3.90;;;;;;;;;;5053004;28;20502;-80
2023/08/31 00:28:34;;;;;;;5.28;4.00;;;;;;;;;;5050614;28;20484;-80
2023/08/31 00:31:03;;;;;;;5.10;3.63;;;;;;;;;;5050575;28;20044;-80
2023/08/31 00:33:28;;;;;;;5.70;3.70;;;;;;;;;;5032145;28;20029;-80
2023/08/31 00:35:57;;;;;;;5.07;3.58;;;;;;;;;;5051789;28;20571;-80
2023/08/31 00:38:22;;;;;;;4.50;2.97;;;;;;;;;;5046050;28;20087;-80
2023/08/31 00:40:47;;;;;;;4.65;2.95;;;;;;;;;;5052481;28;20036;-80
2023/08/31 00:43:15;;;;;;;5.70;2.90;;;;;;;;;;5048983;28;20079;-80
2023/08/31 00:45:40;;;;;;;4.78;2.35;;;;;;;;;;5052405;28;20045;-80
2023/08/31 00:48:05;;;;;;;6.82;2.20;;;;;;;;;;5049186;28;20563;-80
2023/08/31 00:50:31;;;;;;;7.35;1.92;;;;;;;;;;5050667;28;20029;-80
2023/08/31 00:52:56;;;;;;;3.35;1.50;;;;;;;;;;5048940;28;20038;-80
2023/08/31 00:55:22;;;;;;;2.47;1.17;;;;;;;;;;5050115;28;20120;-80
2023/08/31 00:57:47;;;;;;;2.60;1.35;;;;;;;;;;5047922;28;20044;-80
2023/08/31 01:00:14;;;;;;;4.47;1.10;;;;;;;;;;5046368;28;20030;-80
2023/08/31 01:02:39;;;;;;;2.55;1.10;;;;;;;;;;5046929;28;20505;-80
2023/08/31 01:05:09;;;;;;;2.33;1.20;;;;;;;;;;5048323;28;20021;-80
2023/08/31 01:07:41;;;;;;;1.63;0.90;;;;;;;;;;5049379;28;20261;-80
2023/08/31 01:10:11;;;;;;;2.35;1.15;;;;;;;;;;5047177;28;20477;-81
2023/08/31 01:12:41;;;;;;;1.52;0.80;;;;;;;;;;5043310;28;20112;-80
2023/08/31 01:15:10;;;;;;;2.15;1.00;;;;;;;;;;5046747;28;20037;-80
2023/08/31 01:17:49;;;;;;;1.40;0.68;;;;;;;;;;5047894;28;20039;-80
2023/08/31 01:20:19;;;;;;;2.03;0.70;;;;;;;;;;5046923;28;20064;-81
2023/08/31 01:23:03;;;;;;;4.88;1.17;;;;;;;;;;5049433;28;20086;-80
2023/08/31 01:25:30;;;;;;;3.00;0.90;;;;;;;;;;5031423;28;20130;-80
2023/08/31 01:27:56;;;;;;;2.10;1.00;;;;;;;;;;5048642;28;20029;-80
2023/08/31 01:30:21;;;;;;;1.63;0.60;;;;;;;;;;5049160;28;20029;-81
2023/08/31 01:32:47;;;;;;;1.42;0.60;;;;;;;;;;5048337;28;20106;-80
2023/08/31 01:35:15;;;;;;;1.40;0.65;;;;;;;;;;5046624;28;20062;-80
2023/08/31 01:37:47;;;;;;;2.83;0.70;;;;;;;;;;5049434;28;20037;-80
2023/08/31 01:40:23;;;;;;;2.35;0.80;;;;;;;;;;5025984;28;20520;-81
2023/08/31 01:42:48;;;;;;;2.75;0.85;;;;;;;;;;5043300;28;20039;-81
2023/08/31 01:45:20;;;;;;;0.88;0.40;;;;;;;;;;5046652;28;20101;-80
2023/08/31 01:47:45;;;;;;;1.08;0.70;;;;;;;;;;5046146;28;20532;-80
2023/08/31 01:50:11;;;;;;;2.13;0.70;;;;;;;;;;5043667;28;20033;-81
2023/08/31 01:52:36;;;;;;;1.23;0.60;;;;;;;;;;5045663;28;20059;-80
2023/08/31 01:55:03;;;;;;;1.65;0.63;;;;;;;;;;5048373;28;20033;-80
2023/08/31 01:57:28;;;;;;;2.25;0.82;;;;;;;;;;5029586;28;20026;-80
2023/08/31 02:00:09;;;;;;;1.67;0.70;;;;;;;;;;5043661;28;20500;-80
2023/08/31 02:02:41;;;;;;;2.67;0.70;;;;;;;;;;5049077;28;20037;-80
2023/08/31 02:05:07;;;;;;;1.00;0.50;;;;;;;;;;5047852;28;20488;-80
2023/08/31 02:07:33;;;;;;;1.83;0.65;;;;;;;;;;5052971;28;20101;-80
2023/08/31 02:09:58;;;;;;;1.83;0.60;;;;;;;;;;5048827;28;20017;-80
2023/08/31 02:12:23;;;;;;;1.30;0.57;;;;;;;;;;5036446;28;20488;-80
2023/08/31 02:14:49;;;;;;;1.63;0.80;;;;;;;;;;5051234;28;20033;-80
2023/08/31 02:17:14;;;;;;;1.90;0.85;;;;;;;;;;5052643;28;20033;-80
2023/08/31 02:19:39;;;;;;;1.48;0.60;;;;;;;;;;5049026;28;20032;-80
2023/08/31 02:22:05;;;;;;;2.13;1.02;;;;;;;;;;5051642;28;20035;-80
2023/08/31 02:24:30;;;;;;;3.17;1.20;;;;;;;;;;5050933;28;20030;-79
2023/08/31 02:26:55;;;;;;;1.77;0.80;;;;;;;;;;5053813;28;20021;-79
2023/08/31 02:29:21;;;;;;;2.20;0.88;;;;;;;;;;5048904;28;20032;-79
2023/08/31 02:31:46;;;;;;;2.13;1.00;;;;;;;;;;5031890;28;20468;-80
2023/08/31 02:34:11;;;;;;;2.60;1.00;;;;;;;;;;5051438;28;20060;-79
2023/08/31 02:36:36;;;;;;;1.80;0.75;;;;;;;;;;5048777;28;20073;-79
2023/08/31 02:39:03;;;;;;;3.95;0.90;;;;;;;;;;5044653;28;20036;-80
2023/08/31 02:41:28;;;;;;;1.58;0.73;;;;;;;;;;5050683;28;20045;-80
2023/08/31 02:43:54;;;;;;;2.17;0.80;;;;;;;;;;5047794;28;20037;-80
2023/08/31 02:46:19;;;;;;;2.17;0.75;;;;;;;;;;5026287;28;20124;-80
2023/08/31 02:48:44;;;;;;;2.65;1.13;;;;;;;;;;5046402;28;20061;-80
2023/08/31 02:51:10;;;;;;;2.03;0.93;;;;;;;;;;5043075;28;20413;-80
2023/08/31 02:53:35;;;;;;;2.72;1.15;;;;;;;;;;5048931;28;20415;-80
2023/08/31 02:56:00;;;;;;;2.38;0.60;;;;;;;;;;5050009;28;20041;-80
2023/08/31 02:58:27;;;;;;;2.95;1.00;;;;;;;;;;5052829;28;20029;-79
2023/08/31 03:00:53;;;;;;;1.25;0.70;;;;;;;;;;5045916;28;20029;-80
2023/08/31 03:03:18;;;;;;;1.50;0.60;;;;;;;;;;5050766;28;20399;-79
2023/08/31 03:05:44;;;;;;;2.20;1.00;;;;;;;;;;5048108;28;20053;-79
2023/08/31 03:08:09;;;;;;;2.00;1.17;;;;;;;;;;5044583;28;20488;-80
2023/08/31 03:10:35;;;;;;;1.58;0.73;;;;;;;;;;5042653;28;20025;-80
2023/08/31 03:13:00;;;;;;;2.33;0.90;;;;;;;;;;5045121;28;20064;-80
2023/08/31 03:15:26;;;;;;;2.88;1.38;;;;;;;;;;5047459;28;20037;-79
2023/08/31 03:17:51;;;;;;;2.53;1.20;;;;;;;;;;5042392;28;20033;-79
2023/08/31 03:20:16;;;;;;;2.45;0.90;;;;;;;;;;5047958;28;20025;-79
2023/08/31 03:22:41;;;;;;;3.72;0.98;;;;;;;;;;5048024;28;20568;-79
2023/08/31 03:25:07;;;;;;;3.60;1.17;;;;;;;;;;5043909;28;20030;-79
2023/08/31 03:27:32;;;;;;;5.00;1.00;;;;;;;;;;5049259;28;20063;-79
2023/08/31 03:29:57;;;;;;;3.83;1.00;;;;;;;;;;5046255;28;20053;-79
2023/08/31 03:32:23;;;;;;;2.47;1.00;;;;;;;;;;5044928;28;20033;-79
2023/08/31 03:34:48;;;;;;;2.00;0.82;;;;;;;;;;5048560;28;20035;-79
2023/08/31 03:37:13;;;;;;;3.15;1.00;;;;;;;;;;5046847;28;20030;-79
2023/08/31 03:39:40;;;;;;;2.05;1.02;;;;;;;;;;5046342;28;20041;-79
2023/08/31 03:42:06;;;;;;;1.98;0.73;;;;;;;;;;5047608;28;20029;-79
2023/08/31 03:44:32;;;;;;;4.18;1.23;;;;;;;;;;5045945;28;20025;-78
2023/08/31 03:46:57;;;;;;;2.17;1.10;;;;;;;;;;5030850;28;20056;-79
2023/08/31 03:49:23;;;;;;;1.80;0.80;;;;;;;;;;5044644;28;20053;-79
2023/08/31 03:51:48;;;;;;;4.03;1.08;;;;;;;;;;5046755;28;20068;-79
2023/08/31 03:54:13;;;;;;;2.00;0.80;;;;;;;;;;5046970;28;20037;-80
2023/08/31 03:56:39;;;;;;;2.67;1.17;;;;;;;;;;5049363;28;20503;-79
2023/08/31 03:59:05;;;;;;;2.88;0.93;;;;;;;;;;5049738;28;20060;-79
2023/08/31 04:01:30;;;;;;;2.03;0.85;;;;;;;;;;5040126;28;20033;-79
2023/08/31 04:03:56;;;;;;;2.58;1.30;;;;;;;;;;5047130;28;20488;-79
2023/08/31 04:06:21;;;;;;;3.45;1.00;;;;;;;;;;5049407;28;20048;-79
2023/08/31 04:08:46;;;;;;;3.60;1.23;;;;;;;;;;5047935;28;20400;-79
2023/08/31 04:11:11;;;;;;;2.40;0.95;;;;;;;;;;5047327;28;20053;-79
2023/08/31 04:13:36;;;;;;;3.10;1.10;;;;;;;;;;5049840;28;20140;-79
2023/08/31 04:16:02;;;;;;;2.63;1.20;;;;;;;;;;5048071;28;20479;-79
2023/08/31 04:18:27;;;;;;;2.00;0.85;;;;;;;;;;5051196;28;20052;-79
2023/08/31 04:20:53;;;;;;;3.10;1.30;;;;;;;;;;5045425;28;20117;-79
2023/08/31 04:23:19;;;;;;;2.00;0.80;;;;;;;;;;5046326;28;20125;-79
2023/08/31 04:25:45;;;;;;;2.08;1.10;;;;;;;;;;5051857;28;20265;-78
2023/08/31 04:28:10;;;;;;;7.78;4.57;;;;;;;;;;5047337;28;20108;-78
2023/08/31 04:30:35;;;;;;;8.15;6.05;;;;;;;;;;5046194;28;20491;-78
2023/08/31 04:33:00;;;;;;;6.88;3.75;;;;;;;;;;5041997;28;20029;-79
2023/08/31 04:35:25;;;;;;;4.40;2.78;;;;;;;;;;5040843;28;20029;-79
2023/08/31 04:37:51;;;;;;;3.60;1.85;;;;;;;;;;5041682;28;20038;-79
2023/08/31 04:40:16;;;;;;;3.42;1.48;;;;;;;;;;5040697;28;20472;-78
2023/08/31 04:42:42;;;;;;;2.55;1.20;;;;;;;;;;5037166;28;20060;-79
2023/08/31 04:45:07;;;;;;;3.00;1.08;;;;;;;;;;5047984;28;20104;-79
2023/08/31 04:47:32;;;;;;;2.22;1.00;;;;;;;;;;5045202;28;20056;-78
2023/08/31 04:49:59;;;;;;;1.88;0.88;;;;;;;;;;5052791;28;20032;-78
2023/08/31 04:52:24;;;;;;;2.25;1.00;;;;;;;;;;5049682;28;20037;-78
2023/08/31 04:54:49;;;;;;;2.70;1.10;;;;;;;;;;5052562;28;20087;-78
2023/08/31 04:57:15;;;;;;;3.00;1.27;;;;;;;;;;5047737;28;20021;-80
2023/08/31 04:59:40;;;;;;;3.60;1.20;;;;;;;;;;5043392;28;20511;-79
2023/08/31 05:02:05;;;;;;;2.67;1.02;;;;;;;;;;5045398;28;20060;-79
2023/08/31 05:04:30;;;;;;;3.78;1.92;;;;;;;;;;5039006;28;20055;-79
2023/08/31 05:06:55;;;;;;;3.00;1.85;;;;;;;;;;5046433;28;20124;-79
2023/08/31 05:09:21;;;;;;;2.17;1.10;;;;;;;;;;5048030;28;20032;-79
2023/08/31 05:11:46;;;;;;;3.63;1.40;;;;;;;;;;5047446;28;20451;-79
2023/08/31 05:14:11;;;;;;;4.80;1.60;;;;;;;;;;5048140;28;20498;-79
2023/08/31 05:16:36;;;;;;;4.43;1.50;;;;;;;;;;5048134;28;20033;-79
2023/08/31 05:19:02;;;;;;;2.78;1.20;;;;;;;;;;5047198;28;20029;-79
2023/08/31 05:21:27;;;;;;;4.03;1.55;;;;;;;;;;5048452;28;20374;-79
2023/08/31 05:23:53;;;;;;;3.17;1.33;;;;;;;;;;5048336;28;20033;-79
2023/08/31 05:26:18;;;;;;;2.53;1.20;;;;;;;;;;5048397;28;20033;-79
2023/08/31 05:28:43;;;;;;;3.35;1.60;;;;;;;;;;5040747;28;20017;-79
2023/08/31 05:31:09;;;;;;;3.08;1.50;;;;;;;;;;5046303;28;20028;-79
2023/08/31 05:33:34;;;;;;;3.53;1.58;;;;;;;;;;5047056;28;20045;-79
2023/08/31 05:36:03;;;;;;;3.58;1.35;;;;;;;;;;5046007;28;20033;-79
2023/08/31 05:38:29;;;;;;;4.32;1.83;;;;;;;;;;5045485;28;20123;-79
2023/08/31 05:40:54;;;;;;;3.33;1.88;;;;;;;;;;5047288;28;20045;-79
2023/08/31 05:43:19;;;;;;;8.13;2.63;;;;;;;;;;5046326;28;20072;-79
2023/08/31 05:45:46;;;;;;;6.53;2.78;;;;;;;;;;5044751;28;20134;-79
2023/08/31 05:48:11;;;;;;;7.50;3.45;;;;;;;;;;5044264;28;20433;-79
2023/08/31 05:50:37;;;;;;;5.90;2.10;;;;;;;;;;5045435;28;20115;-79
2023/08/31 05:53:02;;;;;;;4.47;2.42;;;;;;;;;;5047387;28;20025;-79
2023/08/31 05:55:27;;;;;;;8.25;3.20;;;;;;;;;;5045381;28;20488;-79
2023/08/31 05:57:52;;;;;;;6.18;3.17;;;;;;;;;;5046508;28;20118;-79
2023/08/31 06:00:18;;;;;;;14.77;3.90;;;;;;;;;;5043792;28;20033;-79
2023/08/31 06:02:46;;;;;;;7.30;3.42;;;;;;;;;;5045746;28;20499;-79
2023/08/31 06:05:16;;;;;;;7.63;3.60;;;;;;;;;;5042207;28;20056;-79
2023/08/31 06:07:41;;;;;;;6.28;3.28;;;;;;;;;;5044606;28;20087;-79
2023/08/31 06:10:07;;;;;;;4.90;2.47;;;;;;;;;;5047135;28;20025;-79
2023/08/31 06:12:32;;;;;;;5.03;3.00;;;;;;;;;;5043996;28;20036;-79
2023/08/31 06:14:57;;;;;;;5.30;3.10;;;;;;;;;;5045352;28;20422;-79
2023/08/31 06:17:23;;;;;;;6.32;2.95;;;;;;;;;;5037571;28;20038;-79
2023/08/31 06:19:48;;;;;;;5.00;2.97;;;;;;;;;;5042711;28;20036;-79
2023/08/31 06:22:13;;;;;;;5.65;3.05;;;;;;;;;;5046441;28;20028;-79
2023/08/31 06:24:38;;;;;;;4.97;2.50;;;;;;;;;;5045674;28;20030;-79
2023/08/31 06:27:04;;;;;;;6.15;3.40;;;;;;;;;;5046443;28;20032;-79
2023/08/31 06:29:29;;;;;;;5.45;3.08;;;;;;;;;;5044057;28;20033;-79
2023/08/31 06:31:54;;;;;;;4.53;2.78;;;;;;;;;;5036487;28;20476;-79
2023/08/31 06:34:19;;;;;;;6.93;3.10;;;;;;;;;;5046369;28;20082;-79
2023/08/31 06:36:45;;;;;;;6.18;3.05;;;;;;;;;;5044388;28;20033;-79
2023/08/31 06:39:10;;;;;;;7.53;2.60;;;;;;;;;;5044664;28;20040;-79
2023/08/31 06:41:35;;;;;;;5.38;2.65;;;;;;;;;;5043332;28;20096;-79
2023/08/31 06:44:01;;;;;;;7.35;3.10;;;;;;;;;;5043909;28;20030;-79
2023/08/31 06:46:27;;;;;;;5.40;2.63;;;;;;;;;;5045587;28;20111;-79
2023/08/31 06:48:52;;;;;;;7.18;2.60;;;;;;;;;;5044341;28;20535;-79
2023/08/31 06:51:18;;;;;;;5.65;3.47;;;;;;;;;;5045425;28;20029;-79
2023/08/31 06:53:43;;;;;;;6.32;3.10;;;;;;;;;;5044755;28;20476;-80
2023/08/31 06:56:09;;;;;;;5.60;3.10;;;;;;;;;;5044895;28;20063;-80
2023/08/31 06:58:34;;;;;;;5.28;3.00;;;;;;;;;;5045526;28;20049;-79
2023/08/31 07:00:59;;;;;;;6.22;3.40;;;;;;;;;;5041541;28;20484;-80
2023/08/31 07:03:24;;;;;;;4.95;2.95;;;;;;;;;;5045165;28;20419;-79
2023/08/31 07:05:49;;;;;;;5.70;2.45;;;;;;;;;;5044913;28;20068;-79
2023/08/31 07:08:15;;;;;;;5.88;2.83;;;;;;;;;;5045422;28;20057;-80
2023/08/31 07:10:40;;;;;;;7.43;3.13;;;;;;;;;;5043778;28;20072;-79
2023/08/31 07:13:05;;;;;;;5.60;3.20;;;;;;;;;;5047324;28;20167;-79
2023/08/31 07:15:30;;;;;;;6.20;3.05;;;;;;;;;;5045766;28;20036;-79
2023/08/31 07:17:55;;;;;;;5.13;3.03;;;;;;;;;;5046448;28;20495;-79
2023/08/31 07:20:21;;;;;;;5.18;3.10;;;;;;;;;;5034029;28;20061;-79
2023/08/31 07:22:46;;;;;;;5.53;2.95;;;;;;;;;;5046045;28;20028;-79
2023/08/31 07:25:11;;;;;;;5.57;2.67;;;;;;;;;;5046060;28;20131;-80
2023/08/31 07:27:37;;;;;;;5.35;2.90;;;;;;;;;;5044011;28;20029;-79
2023/08/31 07:30:03;;;;;;;5.38;2.97;;;;;;;;;;5040612;28;20076;-80
2023/08/31 07:32:29;;;;;;;4.25;2.55;;;;;;;;;;5043204;28;20108;-80
2023/08/31 07:34:54;;;;;;;8.32;4.03;;;;;;;;;;5047042;28;20522;-80
2023/08/31 07:37:19;;;;;;;5.67;2.93;;;;;;;;;;5045129;28;20411;-79
2023/08/31 07:39:44;;;;;;;7.70;3.60;;;;;;;;;;5042922;28;20279;-80
2023/08/31 07:42:09;;;;;;;6.05;2.80;;;;;;;;;;5043757;28;20036;-80
2023/08/31 07:44:35;;;;;;;5.40;2.90;;;;;;;;;;5042345;28;20033;-79
2023/08/31 07:47:00;;;;;;;5.67;2.23;;;;;;;;;;5047840;28;20102;-80
2023/08/31 07:49:25;;;;;;;5.32;2.10;;;;;;;;;;5038252;28;20855;-79
2023/08/31 07:51:50;;;;;;;4.18;2.22;;;;;;;;;;5044345;28;20028;-80
2023/08/31 07:54:19;;;;;;;4.80;2.67;;;;;;;;;;5044058;28;20032;-80
2023/08/31 07:56:45;;;;;;;5.88;2.70;;;;;;;;;;5040346;28;20285;-80
2023/08/31 07:59:10;;;;;;;5.13;2.35;;;;;;;;;;5041788;28;20029;-80
2023/08/31 08:01:36;;;;;;;6.65;2.47;;;;;;;;;;5042060;28;20037;-80
2023/08/31 08:04:01;;;;;;;5.82;2.55;;;;;;;;;;5047086;28;20040;-80
2023/08/31 08:06:26;;;;;;;4.68;1.85;;;;;;;;;;5045595;28;20025;-80
2023/08/31 08:08:51;;;;;;;4.85;1.55;;;;;;;;;;5047528;28;20022;-80
2023/08/31 08:11:16;;;;;;;4.47;1.90;;;;;;;;;;5044570;28;20030;-80
2023/08/31 08:13:42;;;;;;;4.63;2.07;;;;;;;;;;5047333;28;20021;-80
2023/08/31 08:16:08;;;;;;;5.10;2.22;;;;;;;;;;5042580;28;20659;-80
2023/08/31 08:18:34;;;;;;;5.03;2.15;;;;;;;;;;5045763;28;20040;-80
2023/08/31 08:20:59;;;;;;;5.90;1.70;;;;;;;;;;5043015;28;20029;-79
2023/08/31 08:23:24;;;;;;;7.18;1.90;;;;;;;;;;5026963;28;20042;-80
2023/08/31 08:25:49;;;;;;;6.85;2.90;;;;;;;;;;5041747;28;20037;-80
2023/08/31 08:28:14;;;;;;;5.55;2.15;;;;;;;;;;5039298;28;20041;-80
2023/08/31 08:30:40;;;;;;;5.50;2.17;;;;;;;;;;5043446;28;20033;-80
2023/08/31 08:33:05;;;;;;;7.43;2.00;;;;;;;;;;5040096;28;20022;-80
2023/08/31 08:35:30;;;;;;;7.85;2.08;;;;;;;;;;5046932;28;20025;-80
2023/08/31 08:37:55;;;;;;;6.15;1.58;;;;;;;;;;5038239;28;20035;-80
2023/08/31 08:40:23;;;;;;;6.88;1.40;;;;;;;;;;5042059;28;20084;-80
2023/08/31 08:42:52;;;;;;;3.65;1.75;;;;;;;;;;5036500;28;20038;-80
2023/08/31 08:45:18;;;;;;;4.35;1.58;;;;;;;;;;5045664;28;20079;-80
2023/08/31 08:47:44;;;;;;;3.65;1.48;;;;;;;;;;5049994;28;20028;-80
2023/08/31 08:50:25;;;;;;;13.02;2.05;;;;;;;;;;5029871;28;20033;-80
2023/08/31 08:52:50;;;;;;;5.78;1.70;;;;;;;;;;5047528;28;20032;-80
2023/08/31 08:55:16;;;;;;;6.25;2.35;;;;;;;;;;5052061;28;20033;-80
2023/08/31 08:57:41;;;;;;;3.63;1.50;;;;;;;;;;5049705;28;20060;-79
2023/08/31 09:00:10;;;;;;;6.60;1.70;;;;;;;;;;5050900;28;20051;-80
2023/08/31 09:02:36;;;;;;;5.47;1.55;;;;;;;;;;5047069;28;20053;-80
2023/08/31 09:05:01;;;;;;;3.53;1.08;;;;;;;;;;5045432;28;20021;-80
2023/08/31 09:07:29;;;;;;;4.97;1.48;;;;;;;;;;5032696;28;20064;-80
2023/08/31 09:09:54;;;;;;;5.47;1.30;;;;;;;;;;5051496;28;20033;-80
2023/08/31 09:12:27;;;;;;;7.43;0.95;;;;;;;;;;5053605;28;20044;-80
2023/08/31 09:15:04;;;;;;;4.55;0.90;;;;;;;;;;5051186;28;20032;-80
2023/08/31 09:17:40;;;;;;;3.72;1.00;;;;;;;;;;5047524;28;20037;-79
2023/08/31 09:20:05;;;;;;;4.15;1.20;;;;;;;;;;5046414;28;20048;-80
2023/08/31 09:22:31;;;;;;;6.15;1.38;;;;;;;;;;5050867;28;20101;-80
2023/08/31 09:24:56;;;;;;;4.28;1.10;;;;;;;;;;5047707;28;20053;-80
2023/08/31 09:27:24;;;;;;;4.32;1.17;;;;;;;;;;5047597;28;20064;-80
2023/08/31 09:29:49;;;;;;;5.05;1.10;;;;;;;;;;5049546;28;20083;-80
2023/08/31 09:32:18;;;;;;;3.63;1.23;;;;;;;;;;5045140;28;20045;-80
2023/08/31 09:34:43;;;;;;;3.10;1.00;;;;;;;;;;5045200;28;20113;-80
2023/08/31 09:37:09;;;;;;;4.05;1.20;;;;;;;;;;5045936;28;20049;-80
2023/08/31 09:39:40;;;;;;;4.70;1.13;;;;;;;;;;5045268;28;20043;-80
2023/08/31 09:42:06;;;;;;;3.22;1.30;;;;;;;;;;5045908;28;20029;-79
2023/08/31 09:44:31;;;;;;;4.15;1.50;;;;;;;;;;5045992;28;20040;-80
2023/08/31 09:46:57;;;;;;;4.43;1.10;;;;;;;;;;5042406;28;20029;-80
2023/08/31 09:49:23;;;;;;;3.60;1.20;;;;;;;;;;5041809;28;20040;-80
2023/08/31 09:51:49;;;;;;;4.35;1.60;;;;;;;;;;5047019;28;20025;-80
2023/08/31 09:54:19;;;;;;;3.33;1.10;;;;;;;;;;5046719;28;20037;-80
2023/08/31 09:56:45;;;;;;;6.95;1.88;;;;;;;;;;5047042;28;20021;-80
2023/08/31 09:59:14;;;;;;;3.15;1.38;;;;;;;;;;5049776;28;20514;-80
2023/08/31 10:01:40;;;;;;;3.13;1.30;;;;;;;;;;5040179;28;20033;-80
2023/08/31 10:04:08;;;;;;;4.57;1.30;;;;;;;;;;5038378;28;20030;-80
2023/08/31 10:06:34;;;;;;;1.90;1.10;;;;;;;;;;5043466;28;20438;-80
2023/08/31 10:08:59;;;;;;;4.05;1.23;;;;;;;;;;5039516;28;20106;-80
2023/08/31 10:14:07;;;;;;;5.43;1.50;;;;;;;;;;4959112;29;20138;-80
2023/08/31 10:16:44;;;;;;;5.93;1.30;;;;;;;;;;4957791;29;20467;-80
2023/08/31 10:19:09;;;;;;;3.58;1.30;;;;;;;;;;4960376;29;20050;-80
2023/08/31 10:21:35;;;;;;;4.65;1.40;;;;;;;;;;4959741;28;20471;-80
2023/08/31 10:24:00;;;;;;;3.60;1.38;;;;;;;;;;4954532;29;20030;-81
2023/08/31 10:26:28;;;;;;;2.80;1.40;;;;;;;;;;4959312;29;20059;-81
2023/08/31 10:28:54;;;;;;;3.30;1.35;;;;;;;;;;4961252;28;20035;-81
2023/08/31 10:31:29;;;;;;;3.33;1.25;;;;;;;;;;4957827;28;20023;-80
2023/08/31 10:33:57;;;;;;;2.83;1.08;;;;;;;;;;4958180;28;20454;-80
2023/08/31 10:36:33;;;;;;;4.47;1.00;;;;;;;;;;4953369;29;20035;-80
2023/08/31 10:38:58;;;;;;;5.40;1.25;;;;;;;;;;4968940;28;20495;-81
2023/08/31 10:41:25;;;;;;;2.92;1.65;;;;;;;;;;4964067;28;20094;-81
2023/08/31 10:44:00;;;;;;;3.25;1.60;;;;;;;;;;4965076;28;20530;-80
2023/08/31 10:46:27;;;;;;;5.15;2.03;;;;;;;;;;4956374;29;20374;-81
2023/08/31 10:49:17;;;;;;;6.53;2.60;;;;;;;;;;4956467;29;20060;-81
2023/08/31 10:51:46;;;;;;;4.97;2.33;;;;;;;;;;4954940;29;20028;-81
2023/08/31 10:54:25;;;;;;;5.22;2.00;;;;;;;;;;4948694;29;20397;-81
2023/08/31 10:57:11;;;;;;;6.38;2.20;;;;;;;;;;4953545;29;20174;-81
2023/08/31 10:59:42;;;;;;;3.83;1.52;;;;;;;;;;4964355;28;20027;-80
2023/08/31 11:02:08;;;;;;;4.70;2.15;;;;;;;;;;4959232;28;20050;-80
2023/08/31 11:04:59;;;;;;;4.00;2.10;;;;;;;;;;4966217;28;20039;-80
2023/08/31 11:07:26;;;;;;;5.22;2.35;;;;;;;;;;4961581;29;20037;-80
2023/08/31 11:09:51;;;;;;;5.72;2.50;;;;;;;;;;4955310;29;20402;-80
2023/08/31 11:12:16;;;;;;;4.63;2.30;;;;;;;;;;4959521;28;20122;-81
2023/08/31 11:14:42;;;;;;;3.92;2.00;;;;;;;;;;4959780;29;20098;-80
2023/08/31 11:17:07;;;;;;;5.03;1.80;;;;;;;;;;4960098;29;20066;-80
2023/08/31 11:19:33;;;;;;;5.05;2.17;;;;;;;;;;4958604;29;20118;-80
2023/08/31 11:21:59;;;;;;;1.90;1.00;;;;;;;;;;4959205;28;20066;-80
2023/08/31 11:24:25;;;;;;;1.85;0.80;;;;;;;;;;4949980;29;20054;-80
2023/08/31 11:26:51;;;;;;;0.93;0.60;;;;;;;;;;4958369;29;20090;-80
2023/08/31 11:29:16;;;;;;;1.90;0.45;;;;;;;;;;4956869;29;20069;-80
2023/08/31 11:31:41;;;;;;;2.95;0.73;;;;;;;;;;4956569;29;20031;-80
2023/08/31 11:34:11;;;;;;;2.22;0.98;;;;;;;;;;4944011;29;20477;-80
2023/08/31 11:36:36;;;;;;;1.05;0.50;;;;;;;;;;4958290;29;20031;-80
2023/08/31 11:39:03;;;;;;;1.25;0.52;;;;;;;;;;4955931;29;20047;-80
2023/08/31 11:41:41;;;;;;;1.13;0.50;;;;;;;;;;4958922;28;20032;-81
2023/08/31 11:44:18;;;;;;;1.40;0.50;;;;;;;;;;4948623;29;20063;-81
2023/08/31 11:46:45;;;;;;;1.55;0.63;;;;;;;;;;4955497;29;20086;-82
2023/08/31 11:49:10;;;;;;;2.58;0.70;;;;;;;;;;4949139;28;20046;-81
2023/08/31 11:51:36;;;;;;;2.67;0.85;;;;;;;;;;4955166;29;20061;-82
2023/08/31 11:54:02;;;;;;;2.38;0.70;;;;;;;;;;4955069;29;20027;-81
2023/08/31 11:56:28;;;;;;;2.28;0.60;;;;;;;;;;4955778;29;20031;-82
2023/08/31 11:59:03;;;;;;;1.00;0.52;;;;;;;;;;4955247;29;20035;-82
2023/08/31 12:01:32;;;;;;;2.95;0.90;;;;;;;;;;4960978;28;20573;-80
2023/08/31 12:03:57;;;;;;;1.95;0.77;;;;;;;;;;4955932;28;20479;-82
2023/08/31 12:06:22;;;;;;;1.70;0.90;;;;;;;;;;4962318;28;20035;-82
2023/08/31 12:08:48;;;;;;;4.07;1.67;;;;;;;;;;4956850;29;20282;-80
2023/08/31 12:11:15;;;;;;;3.60;0.85;;;;;;;;;;4957140;29;20278;-82
2023/08/31 12:13:40;;;;;;;1.98;0.70;;;;;;;;;;4963923;28;20569;-81
2023/08/31 12:16:11;;;;;;;3.50;1.00;;;;;;;;;;4957374;28;20047;-82
2023/08/31 12:18:37;;;;;;;2.85;0.90;;;;;;;;;;4968006;28;20826;-82
2023/08/31 12:21:02;;;;;;;3.22;1.20;;;;;;;;;;4960035;28;20050;-81
2023/08/31 12:23:28;;;;;;;2.28;1.08;;;;;;;;;;4967729;28;20118;-80
2023/08/31 12:25:54;;;;;;;3.05;1.30;;;;;;;;;;4962863;28;20043;-80
2023/08/31 12:28:20;;;;;;;3.95;1.45;;;;;;;;;;4951291;29;20031;-79
2023/08/31 12:30:50;;;;;;;2.03;0.90;;;;;;;;;;4961217;29;20035;-80
2023/08/31 12:33:15;;;;;;;3.17;1.00;;;;;;;;;;4961607;29;20122;-80
2023/08/31 12:35:44;;;;;;;2.55;1.00;;;;;;;;;;4960728;29;20081;-80
2023/08/31 12:38:09;;;;;;;2.88;0.95;;;;;;;;;;4960024;29;20039;-80
2023/08/31 12:40:35;;;;;;;3.25;1.35;;;;;;;;;;4960906;29;20556;-80
2023/08/31 12:43:00;;;;;;;2.47;1.02;;;;;;;;;;4959794;28;20039;-80
2023/08/31 12:45:25;;;;;;;2.87;1.33;;;;;;;;;;4960485;29;20058;-80
2023/08/31 12:47:50;;;;;;;2.67;1.20;;;;;;;;;;4961561;29;20310;-80
2023/08/31 12:50:15;;;;;;;3.77;1.20;;;;;;;;;;4963532;28;20361;-80
2023/08/31 12:52:44;;;;;;;3.55;1.20;;;;;;;;;;5101954;23;20315;-80
2023/08/31 12:55:09;;;;;;;2.60;1.02;;;;;;;;;;4943158;29;20559;-80
2023/08/31 12:57:35;;;;;;;3.22;1.20;;;;;;;;;;4963213;28;20059;-80
2023/08/31 13:00:00;;;;;;;2.28;0.93;;;;;;;;;;4961841;29;20037;-80
2023/08/31 13:02:25;;;;;;;3.78;1.25;;;;;;;;;;4941549;29;20078;-80
2023/08/31 13:04:50;;;;;;;5.68;1.60;;;;;;;;;;4952154;29;20039;-80
2023/08/31 13:07:16;;;;;;;3.35;1.10;;;;;;;;;;4953278;29;20023;-80
2023/08/31 13:09:41;;;;;;;2.45;1.10;;;;;;;;;;4953424;28;20403;-80
2023/08/31 13:12:06;;;;;;;3.85;1.33;;;;;;;;;;4952799;29;20035;-80
2023/08/31 13:14:31;;;;;;;4.03;1.25;;;;;;;;;;4935790;29;20031;-80
2023/08/31 13:16:57;;;;;;;3.00;1.20;;;;;;;;;;4953656;28;20095;-80
2023/08/31 13:19:22;;;;;;;7.10;1.40;;;;;;;;;;4954714;29;20342;-80
2023/08/31 13:21:47;;;;;;;4.80;1.20;;;;;;;;;;4938594;29;20289;-80
2023/08/31 13:24:12;;;;;;;3.30;1.30;;;;;;;;;;4954217;29;20042;-80
2023/08/31 13:26:38;;;;;;;2.60;0.90;;;;;;;;;;4957019;28;20058;-80
2023/08/31 13:29:04;;;;;;;3.83;1.20;;;;;;;;;;4955157;29;20043;-80
2023/08/31 13:31:29;;;;;;;2.92;1.17;;;;;;;;;;4954597;29;20275;-80
2023/08/31 13:33:55;;;;;;;3.27;1.20;;;;;;;;;;4951329;29;20032;-80
2023/08/31 13:36:20;;;;;;;3.80;1.17;;;;;;;;;;4954541;28;20662;-80
2023/08/31 13:38:45;;;;;;;1.90;0.90;;;;;;;;;;4956466;29;20278;-80
2023/08/31 13:41:10;;;;;;;2.80;1.23;;;;;;;;;;4955382;29;20279;-79
2023/08/31 13:43:35;;;;;;;4.50;1.30;;;;;;;;;;4955983;28;20035;-80
2023/08/31 13:46:01;;;;;;;2.20;0.90;;;;;;;;;;4957035;29;20123;-80
2023/08/31 13:48:26;;;;;;;3.63;0.90;;;;;;;;;;4958740;28;20319;-80
2023/08/31 13:50:51;;;;;;;2.53;0.90;;;;;;;;;;4956307;28;20031;-80
2023/08/31 13:53:16;;;;;;;2.67;0.93;;;;;;;;;;4958280;29;20379;-80
2023/08/31 13:55:41;;;;;;;2.83;0.70;;;;;;;;;;4954871;29;20306;-80
2023/08/31 13:58:07;;;;;;;3.73;1.10;;;;;;;;;;4953533;29;20287;-80
2023/08/31 14:00:33;;;;;;;2.70;1.10;;;;;;;;;;4953804;29;20282;-80
2023/08/31 14:03:02;;;;;;;1.63;0.80;;;;;;;;;;4953103;29;20031;-80
2023/08/31 14:05:27;;;;;;;2.22;0.88;;;;;;;;;;4952657;29;20042;-80
2023/08/31 14:07:53;;;;;;;2.40;0.97;;;;;;;;;;4956544;29;20406;-80
2023/08/31 14:10:18;;;;;;;1.90;0.70;;;;;;;;;;4953750;29;20713;-80
2023/08/31 14:12:46;;;;;;;4.03;1.30;;;;;;;;;;4952615;28;20311;-80
2023/08/31 14:15:11;;;;;;;3.20;0.90;;;;;;;;;;4952398;29;20186;-80
2023/08/31 14:17:36;;;;;;;3.05;1.60;;;;;;;;;;4953043;29;20500;-80
2023/08/31 14:20:05;;;;;;;2.10;0.90;;;;;;;;;;4952514;29;20031;-80
2023/08/31 14:22:30;;;;;;;2.83;0.82;;;;;;;;;;4947442;29;20727;-79
2023/08/31 14:24:56;;;;;;;3.05;1.00;;;;;;;;;;4958166;29;20102;-79
2023/08/31 14:27:22;;;;;;;2.63;0.80;;;;;;;;;;4953052;29;20035;-80
2023/08/31 14:29:48;;;;;;;1.75;0.93;;;;;;;;;;4960173;28;20027;-80
2023/08/31 14:32:13;;;;;;;2.00;0.85;;;;;;;;;;4952489;28;20049;-80
2023/08/31 14:34:38;;;;;;;2.75;0.80;;;;;;;;;;4949556;28;20115;-80
2023/08/31 14:37:03;;;;;;;2.87;0.90;;;;;;;;;;4951723;29;20036;-80
2023/08/31 14:39:30;;;;;;;2.63;1.00;;;;;;;;;;4946956;28;20287;-80
2023/08/31 14:41:58;;;;;;;2.17;0.70;;;;;;;;;;4953886;29;20060;-80